Time;durP1;ratioP1;P1;durP2;ratioP2;P2;SDS_P1;SDS_P2;PMS_P1;PMS_P2;Temp;Humidity;BMP_temperature;BMP_pressure;BME280_temperature;BME280_humidity;BME280_pressure;Samples;Min_cycle;Max_cycle;Signal;HPM_P1;HPM_P2
2023/01/20 00:02:11;;;;;;;5.28;3.83;;;;;;;;;;5078792;28;20220;-67
2023/01/20 00:04:39;;;;;;;4.38;3.92;;;;;;;;;;5078590;28;20230;-67
2023/01/20 00:07:08;;;;;;;4.57;3.83;;;;;;;;;;5078415;28;20231;-67
2023/01/20 00:09:36;;;;;;;4.00;3.60;;;;;;;;;;5078541;28;20551;-67
2023/01/20 00:12:04;;;;;;;6.18;3.85;;;;;;;;;;5078288;28;20204;-67
2023/01/20 00:14:31;;;;;;;4.10;3.50;;;;;;;;;;5078091;28;20214;-67
2023/01/20 00:16:59;;;;;;;5.15;3.80;;;;;;;;;;5078263;28;20536;-67
2023/01/20 00:19:27;;;;;;;5.90;3.60;;;;;;;;;;5078256;28;20204;-66
2023/01/20 00:21:55;;;;;;;7.25;3.70;;;;;;;;;;5078341;28;20208;-67
2023/01/20 00:24:24;;;;;;;4.55;3.47;;;;;;;;;;5078270;28;20211;-67
2023/01/20 00:26:51;;;;;;;4.57;3.83;;;;;;;;;;5078763;28;20246;-66
2023/01/20 00:29:19;;;;;;;6.30;3.60;;;;;;;;;;5078627;28;20214;-66
2023/01/20 00:31:47;;;;;;;3.83;3.47;;;;;;;;;;5078497;28;20608;-66
2023/01/20 00:34:15;;;;;;;4.53;3.10;;;;;;;;;;5078410;28;20204;-66
2023/01/20 00:36:42;;;;;;;3.55;3.25;;;;;;;;;;5078197;28;20498;-66
2023/01/20 00:39:10;;;;;;;5.18;3.40;;;;;;;;;;5078452;28;20208;-66
2023/01/20 00:41:39;;;;;;;3.58;3.28;;;;;;;;;;5077796;28;20200;-66
2023/01/20 00:44:07;;;;;;;6.03;3.13;;;;;;;;;;5077996;28;20265;-66
2023/01/20 00:46:35;;;;;;;3.92;3.17;;;;;;;;;;5078277;28;20204;-66
2023/01/20 00:49:03;;;;;;;4.88;3.13;;;;;;;;;;5077898;28;20212;-66
2023/01/20 00:51:30;;;;;;;5.07;3.42;;;;;;;;;;5077201;28;20220;-66
2023/01/20 00:53:58;;;;;;;5.35;3.10;;;;;;;;;;5077998;28;20238;-66
2023/01/20 00:56:26;;;;;;;3.88;2.90;;;;;;;;;;5077864;28;20290;-66
2023/01/20 00:58:55;;;;;;;4.47;2.90;;;;;;;;;;5077817;28;20560;-67
2023/01/20 01:01:24;;;;;;;4.63;2.90;;;;;;;;;;5077247;28;20551;-66
2023/01/20 01:03:54;;;;;;;2.92;2.67;;;;;;;;;;5077830;28;20211;-67
2023/01/20 01:06:22;;;;;;;4.03;3.00;;;;;;;;;;5077418;28;20204;-67
2023/01/20 01:08:50;;;;;;;3.55;3.22;;;;;;;;;;5076966;28;20204;-66
2023/01/20 01:11:18;;;;;;;4.38;3.10;;;;;;;;;;5077098;28;20224;-66
2023/01/20 01:13:45;;;;;;;3.35;3.05;;;;;;;;;;5077697;28;20215;-67
2023/01/20 01:16:16;;;;;;;3.05;2.70;;;;;;;;;;5077652;28;20205;-67
2023/01/20 01:18:44;;;;;;;3.45;2.80;;;;;;;;;;5077250;28;20736;-67
2023/01/20 01:21:13;;;;;;;3.45;2.88;;;;;;;;;;5077465;28;20622;-67
2023/01/20 01:23:40;;;;;;;3.20;2.50;;;;;;;;;;5077803;28;20274;-66
2023/01/20 01:26:08;;;;;;;3.53;2.90;;;;;;;;;;5077414;28;20576;-66
2023/01/20 01:28:36;;;;;;;3.53;3.20;;;;;;;;;;5077342;28;20282;-66
2023/01/20 01:31:04;;;;;;;2.97;2.70;;;;;;;;;;5077371;28;20224;-66
2023/01/20 01:33:34;;;;;;;3.03;2.83;;;;;;;;;;5077378;28;20230;-66
2023/01/20 01:36:03;;;;;;;3.30;2.53;;;;;;;;;;5077234;28;20204;-66
2023/01/20 01:38:31;;;;;;;3.35;2.70;;;;;;;;;;5077444;28;20223;-66
2023/01/20 01:40:58;;;;;;;3.00;2.70;;;;;;;;;;5077481;28;20207;-66
2023/01/20 01:43:27;;;;;;;2.80;2.60;;;;;;;;;;5077248;28;20215;-66
2023/01/20 01:45:55;;;;;;;2.90;2.70;;;;;;;;;;5077663;28;20695;-66
2023/01/20 01:48:24;;;;;;;4.07;2.70;;;;;;;;;;5077571;28;20204;-66
2023/01/20 01:50:55;;;;;;;2.75;2.35;;;;;;;;;;5077560;28;20227;-66
2023/01/20 01:53:23;;;;;;;3.70;2.88;;;;;;;;;;5076682;28;20253;-66
2023/01/20 01:55:52;;;;;;;2.65;2.45;;;;;;;;;;5076508;28;20208;-66
2023/01/20 01:58:21;;;;;;;2.95;2.67;;;;;;;;;;5075696;28;20236;-66
2023/01/20 02:00:49;;;;;;;2.70;2.50;;;;;;;;;;5077052;28;20222;-66
2023/01/20 02:03:17;;;;;;;3.00;2.70;;;;;;;;;;5079990;28;20204;-66
2023/01/20 02:05:46;;;;;;;2.47;2.28;;;;;;;;;;5079837;28;20218;-66
2023/01/20 02:08:15;;;;;;;2.72;2.42;;;;;;;;;;5079658;28;20603;-66
2023/01/20 02:10:42;;;;;;;2.70;2.50;;;;;;;;;;5079786;28;20231;-66
2023/01/20 02:13:10;;;;;;;2.80;2.60;;;;;;;;;;5079795;28;20212;-66
2023/01/20 02:15:40;;;;;;;3.10;2.80;;;;;;;;;;5079761;28;20478;-66
2023/01/20 02:18:16;;;;;;;2.45;2.25;;;;;;;;;;5077938;28;20200;-66
2023/01/20 02:21:02;;;;;;;2.70;2.50;;;;;;;;;;5079673;28;20234;-66
2023/01/20 02:23:42;;;;;;;2.90;2.40;;;;;;;;;;5079795;28;20200;-66
2023/01/20 02:26:28;;;;;;;2.58;2.38;;;;;;;;;;5079406;28;20238;-66
2023/01/20 02:29:14;;;;;;;2.70;2.50;;;;;;;;;;5080099;28;20481;-66
2023/01/20 02:32:01;;;;;;;3.45;2.58;;;;;;;;;;5078495;28;20228;-66
2023/01/20 02:34:32;;;;;;;2.58;2.38;;;;;;;;;;5079864;28;20215;-66
2023/01/20 02:37:02;;;;;;;2.88;2.60;;;;;;;;;;5079610;28;20227;-66
2023/01/20 02:39:36;;;;;;;2.75;2.55;;;;;;;;;;5079520;28;20263;-66
2023/01/20 02:42:07;;;;;;;2.60;2.40;;;;;;;;;;5079383;28;20208;-66
2023/01/20 02:44:39;;;;;;;2.60;2.40;;;;;;;;;;5079329;28;20220;-66
2023/01/20 02:47:10;;;;;;;2.50;2.30;;;;;;;;;;5079179;28;20204;-66
2023/01/20 02:49:42;;;;;;;2.72;2.45;;;;;;;;;;5079836;28;20661;-66
2023/01/20 02:52:11;;;;;;;3.65;2.53;;;;;;;;;;5078786;28;20224;-66
2023/01/20 02:54:42;;;;;;;2.50;2.30;;;;;;;;;;5079506;28;20543;-66
2023/01/20 02:57:12;;;;;;;2.83;2.63;;;;;;;;;;4523796;28;15146116;-66
2023/01/20 02:59:43;;;;;;;2.47;2.28;;;;;;;;;;5073461;28;20234;-66
2023/01/20 03:02:12;;;;;;;2.53;2.33;;;;;;;;;;5080661;28;20244;-66
2023/01/20 03:04:42;;;;;;;2.58;2.38;;;;;;;;;;5079862;28;20212;-66
2023/01/20 03:07:11;;;;;;;3.20;2.92;;;;;;;;;;5080429;28;20282;-66
2023/01/20 03:09:40;;;;;;;2.78;2.42;;;;;;;;;;5080347;28;20204;-66
2023/01/20 03:12:10;;;;;;;2.42;2.22;;;;;;;;;;5079108;28;20231;-66
2023/01/20 03:14:38;;;;;;;2.40;2.20;;;;;;;;;;5080039;28;20269;-66
2023/01/20 03:17:06;;;;;;;2.60;2.40;;;;;;;;;;5080086;28;20731;-66
2023/01/20 03:19:33;;;;;;;2.63;2.42;;;;;;;;;;5080285;28;20204;-66
2023/01/20 03:22:03;;;;;;;2.33;2.15;;;;;;;;;;5080156;28;20552;-66
2023/01/20 03:24:31;;;;;;;2.58;2.38;;;;;;;;;;5079996;28;20230;-66
2023/01/20 03:26:59;;;;;;;2.40;2.20;;;;;;;;;;5080164;28;20270;-66
2023/01/20 03:29:28;;;;;;;2.35;2.15;;;;;;;;;;5079825;28;20283;-66
2023/01/20 03:31:57;;;;;;;2.50;2.30;;;;;;;;;;5079748;28;20243;-66
2023/01/20 03:34:26;;;;;;;2.60;2.40;;;;;;;;;;5079726;28;20270;-65
2023/01/20 03:36:54;;;;;;;2.80;2.60;;;;;;;;;;5079686;28;20200;-66
2023/01/20 03:39:24;;;;;;;2.67;2.10;;;;;;;;;;5079455;28;20238;-66
2023/01/20 03:41:58;;;;;;;2.60;2.40;;;;;;;;;;5079347;28;20295;-66
2023/01/20 03:44:30;;;;;;;2.63;2.42;;;;;;;;;;5079763;28;20531;-66
2023/01/20 03:47:02;;;;;;;2.65;2.45;;;;;;;;;;5079176;28;20216;-66
2023/01/20 03:49:31;;;;;;;2.50;2.30;;;;;;;;;;5079778;28;20305;-66
2023/01/20 03:52:03;;;;;;;2.42;2.22;;;;;;;;;;5078855;28;20220;-66
2023/01/20 03:54:36;;;;;;;2.67;2.47;;;;;;;;;;5078961;28;20214;-66
2023/01/20 03:57:05;;;;;;;2.60;2.40;;;;;;;;;;5078969;28;20232;-66
2023/01/20 03:59:35;;;;;;;2.83;2.63;;;;;;;;;;5079223;28;20204;-66
2023/01/20 04:02:03;;;;;;;2.72;2.53;;;;;;;;;;5079282;28;20200;-66
2023/01/20 04:04:34;;;;;;;2.55;2.35;;;;;;;;;;5079202;28;20542;-66
2023/01/20 04:07:02;;;;;;;2.60;2.40;;;;;;;;;;5078639;28;20204;-66
2023/01/20 04:09:32;;;;;;;2.60;2.40;;;;;;;;;;5079246;28;20204;-66
2023/01/20 04:12:01;;;;;;;2.65;2.45;;;;;;;;;;5078657;28;20221;-66
2023/01/20 04:14:29;;;;;;;2.92;2.72;;;;;;;;;;5078825;28;20299;-66
2023/01/20 04:16:58;;;;;;;2.60;2.40;;;;;;;;;;5078552;28;20204;-66
2023/01/20 04:19:26;;;;;;;2.80;2.60;;;;;;;;;;5078818;28;20215;-66
2023/01/20 04:21:56;;;;;;;2.75;2.55;;;;;;;;;;5078410;28;20244;-66
2023/01/20 04:24:26;;;;;;;2.30;2.10;;;;;;;;;;5077640;28;20204;-66
2023/01/20 04:26:54;;;;;;;2.50;2.30;;;;;;;;;;5078787;28;20212;-66
2023/01/20 04:29:23;;;;;;;2.67;2.47;;;;;;;;;;5078215;28;20212;-66
2023/01/20 04:31:51;;;;;;;2.90;2.70;;;;;;;;;;5078241;28;20560;-66
2023/01/20 04:34:18;;;;;;;2.65;2.45;;;;;;;;;;5077746;28;20200;-66
2023/01/20 04:36:46;;;;;;;2.90;2.60;;;;;;;;;;5078286;28;20216;-66
2023/01/20 04:39:14;;;;;;;3.00;2.80;;;;;;;;;;5078282;28;20581;-66
2023/01/20 04:41:42;;;;;;;2.90;2.70;;;;;;;;;;5078145;28;20235;-66
2023/01/20 04:44:09;;;;;;;2.78;2.58;;;;;;;;;;5077913;28;20277;-67
2023/01/20 04:46:38;;;;;;;3.40;3.10;;;;;;;;;;5078044;28;20214;-66
2023/01/20 04:49:06;;;;;;;2.90;2.65;;;;;;;;;;5078062;28;20200;-66
2023/01/20 04:51:34;;;;;;;2.80;2.60;;;;;;;;;;5077422;28;20220;-66
2023/01/20 04:54:01;;;;;;;3.20;2.90;;;;;;;;;;5077705;28;20646;-66
2023/01/20 04:56:29;;;;;;;3.53;3.22;;;;;;;;;;5077692;28;20232;-66
2023/01/20 04:58:57;;;;;;;3.00;2.80;;;;;;;;;;5077727;28;20315;-66
2023/01/20 05:01:24;;;;;;;3.00;2.80;;;;;;;;;;5077631;28;20200;-66
2023/01/20 05:03:53;;;;;;;3.20;3.00;;;;;;;;;;5077880;28;20562;-66
2023/01/20 05:06:20;;;;;;;2.63;2.42;;;;;;;;;;5077588;28;20561;-66
2023/01/20 05:08:48;;;;;;;3.13;2.83;;;;;;;;;;5077295;28;20247;-66
2023/01/20 05:11:15;;;;;;;2.95;2.65;;;;;;;;;;5077217;28;20612;-66
2023/01/20 05:13:43;;;;;;;2.95;2.75;;;;;;;;;;5077404;28;20550;-66
2023/01/20 05:16:11;;;;;;;2.97;2.78;;;;;;;;;;5076868;28;20208;-66
2023/01/20 05:18:39;;;;;;;3.20;2.90;;;;;;;;;;5077656;28;20204;-66
2023/01/20 05:21:08;;;;;;;3.13;2.90;;;;;;;;;;5076000;28;20204;-66
2023/01/20 05:23:35;;;;;;;3.03;2.83;;;;;;;;;;5076671;28;20205;-66
2023/01/20 05:26:03;;;;;;;3.10;2.90;;;;;;;;;;5076951;28;20299;-66
2023/01/20 05:28:30;;;;;;;2.95;2.75;;;;;;;;;;5076727;28;20298;-66
2023/01/20 05:30:58;;;;;;;2.88;2.67;;;;;;;;;;5076867;28;20296;-66
2023/01/20 05:33:25;;;;;;;3.08;2.88;;;;;;;;;;5076035;28;20715;-66
2023/01/20 05:35:52;;;;;;;3.20;3.00;;;;;;;;;;5076375;28;20204;-66
2023/01/20 05:38:21;;;;;;;3.28;3.08;;;;;;;;;;5076017;28;20231;-66
2023/01/20 05:40:49;;;;;;;2.90;2.70;;;;;;;;;;5075782;28;20622;-66
2023/01/20 05:43:16;;;;;;;3.60;3.30;;;;;;;;;;5076359;28;20287;-66
2023/01/20 05:45:45;;;;;;;3.00;2.80;;;;;;;;;;5075452;28;20215;-66
2023/01/20 05:48:12;;;;;;;3.00;2.80;;;;;;;;;;5075597;28;20469;-66
2023/01/20 05:50:41;;;;;;;3.42;2.75;;;;;;;;;;5075380;28;20197;-66
2023/01/20 05:53:08;;;;;;;3.17;2.95;;;;;;;;;;5074970;28;20298;-66
2023/01/20 05:55:37;;;;;;;3.08;2.80;;;;;;;;;;5074593;28;20239;-66
2023/01/20 05:58:04;;;;;;;3.40;3.10;;;;;;;;;;5074714;28;20240;-66
2023/01/20 06:00:32;;;;;;;3.50;3.20;;;;;;;;;;5075410;28;20595;-66
2023/01/20 06:02:59;;;;;;;3.60;3.30;;;;;;;;;;5073678;28;20196;-66
2023/01/20 06:05:27;;;;;;;2.90;2.70;;;;;;;;;;5074932;28;20214;-66
2023/01/20 06:07:55;;;;;;;3.20;2.90;;;;;;;;;;5073870;28;20208;-66
2023/01/20 06:10:24;;;;;;;2.90;2.70;;;;;;;;;;5074361;28;20514;-66
2023/01/20 06:12:53;;;;;;;3.35;3.05;;;;;;;;;;5073926;28;20562;-66
2023/01/20 06:15:22;;;;;;;3.33;3.13;;;;;;;;;;5074100;28;20295;-66
2023/01/20 06:17:49;;;;;;;3.20;3.00;;;;;;;;;;5073329;28;20211;-66
2023/01/20 06:20:17;;;;;;;3.47;3.17;;;;;;;;;;5072989;28;20291;-66
2023/01/20 06:22:44;;;;;;;3.03;2.83;;;;;;;;;;5072860;28;20295;-66
2023/01/20 06:25:12;;;;;;;3.10;2.90;;;;;;;;;;5074587;28;20255;-66
2023/01/20 06:27:39;;;;;;;2.70;2.50;;;;;;;;;;5054337;28;20550;-66
2023/01/20 06:30:09;;;;;;;4.10;3.75;;;;;;;;;;5053029;28;20654;-66
2023/01/20 06:32:37;;;;;;;4.10;3.80;;;;;;;;;;5052777;28;20236;-66
2023/01/20 06:35:04;;;;;;;4.43;4.03;;;;;;;;;;5052848;28;20216;-66
2023/01/20 06:37:32;;;;;;;3.75;3.45;;;;;;;;;;5062403;28;20284;-66
2023/01/20 06:39:59;;;;;;;3.83;3.53;;;;;;;;;;5073947;28;20557;-66
2023/01/20 06:42:26;;;;;;;4.13;3.83;;;;;;;;;;5073350;28;20314;-66
2023/01/20 06:44:54;;;;;;;3.92;3.58;;;;;;;;;;5073605;28;20236;-66
2023/01/20 06:47:23;;;;;;;3.78;3.47;;;;;;;;;;5075339;28;20200;-66
2023/01/20 06:49:50;;;;;;;3.97;3.67;;;;;;;;;;5076968;28;20294;-66
2023/01/20 06:52:17;;;;;;;3.95;3.65;;;;;;;;;;5077288;28;20228;-66
2023/01/20 06:54:45;;;;;;;3.92;3.63;;;;;;;;;;5077339;28;20304;-66
2023/01/20 06:57:12;;;;;;;4.40;4.00;;;;;;;;;;5076570;28;20710;-66
2023/01/20 06:59:40;;;;;;;3.60;3.30;;;;;;;;;;5077479;28;20250;-66
2023/01/20 07:02:07;;;;;;;3.80;3.42;;;;;;;;;;5077442;28;20201;-66
2023/01/20 07:04:36;;;;;;;3.67;3.38;;;;;;;;;;5077220;28;20243;-66
2023/01/20 07:07:03;;;;;;;3.28;2.97;;;;;;;;;;5077926;28;20204;-66
2023/01/20 07:09:31;;;;;;;3.95;3.55;;;;;;;;;;5078018;28;20302;-66
2023/01/20 07:11:58;;;;;;;3.80;3.50;;;;;;;;;;5078391;28;20215;-66
2023/01/20 07:14:26;;;;;;;3.42;3.15;;;;;;;;;;5078309;28;20203;-66
2023/01/20 07:16:53;;;;;;;3.65;3.35;;;;;;;;;;5077737;28;20296;-66
2023/01/20 07:19:20;;;;;;;4.30;2.95;;;;;;;;;;5076883;28;20330;-66
2023/01/20 07:21:49;;;;;;;3.83;3.17;;;;;;;;;;5078169;28;20287;-66
2023/01/20 07:24:17;;;;;;;3.42;3.13;;;;;;;;;;5078302;28;20505;-66
2023/01/20 07:26:45;;;;;;;3.22;2.95;;;;;;;;;;5077439;28;20218;-66
2023/01/20 07:29:12;;;;;;;3.47;3.17;;;;;;;;;;5077791;28;20299;-66
2023/01/20 07:31:39;;;;;;;3.55;3.25;;;;;;;;;;5078192;28;20239;-65
2023/01/20 07:34:07;;;;;;;3.30;3.00;;;;;;;;;;5077845;28;20263;-66
2023/01/20 07:36:35;;;;;;;3.50;2.90;;;;;;;;;;5077298;28;20715;-66
2023/01/20 07:39:04;;;;;;;3.35;3.03;;;;;;;;;;5077243;28;20295;-66
2023/01/20 07:41:31;;;;;;;3.58;3.28;;;;;;;;;;5077229;28;20508;-66
2023/01/20 07:43:58;;;;;;;3.03;2.83;;;;;;;;;;5077588;28;20283;-66
2023/01/20 07:46:26;;;;;;;3.45;3.15;;;;;;;;;;5077014;28;20197;-66
2023/01/20 07:48:53;;;;;;;3.28;2.97;;;;;;;;;;5076647;28;20298;-66
2023/01/20 07:51:21;;;;;;;3.25;2.95;;;;;;;;;;5076441;28;20565;-66
2023/01/20 07:53:50;;;;;;;3.10;2.90;;;;;;;;;;5077046;28;20249;-66
2023/01/20 07:56:20;;;;;;;3.30;3.00;;;;;;;;;;5077267;28;20243;-66
2023/01/20 07:58:49;;;;;;;3.50;3.08;;;;;;;;;;5075279;28;20323;-66
2023/01/20 08:01:17;;;;;;;3.22;2.95;;;;;;;;;;5076018;28;20230;-66
2023/01/20 08:03:45;;;;;;;3.03;2.83;;;;;;;;;;5076134;28;20192;-66
2023/01/20 08:06:13;;;;;;;3.38;3.08;;;;;;;;;;5076495;28;20299;-66
2023/01/20 08:08:41;;;;;;;3.45;3.15;;;;;;;;;;5076792;28;20209;-66
2023/01/20 08:11:09;;;;;;;3.17;2.90;;;;;;;;;;5076979;28;20236;-66
2023/01/20 08:13:38;;;;;;;3.03;2.72;;;;;;;;;;5076530;28;20311;-66
2023/01/20 08:16:06;;;;;;;2.83;2.63;;;;;;;;;;5076455;28;20281;-66
2023/01/20 08:18:34;;;;;;;2.85;2.65;;;;;;;;;;5076464;28;20201;-66
2023/01/20 08:21:05;;;;;;;2.80;2.55;;;;;;;;;;5076237;28;20197;-66
2023/01/20 08:23:32;;;;;;;2.95;2.75;;;;;;;;;;5075943;28;20697;-66
2023/01/20 08:26:00;;;;;;;3.38;3.08;;;;;;;;;;5076374;28;20239;-66
2023/01/20 08:28:28;;;;;;;2.92;2.72;;;;;;;;;;5076924;28;20204;-66
2023/01/20 08:31:03;;;;;;;14.52;8.38;;;;;;;;;;5076224;28;20218;-66
2023/01/20 08:33:30;;;;;;;13.05;6.35;;;;;;;;;;5075346;28;20678;-66
2023/01/20 08:35:58;;;;;;;13.93;6.68;;;;;;;;;;5075995;28;20239;-66
2023/01/20 08:38:25;;;;;;;11.50;6.32;;;;;;;;;;5075868;28;20215;-66
2023/01/20 08:40:52;;;;;;;13.07;6.95;;;;;;;;;;5075572;28;20552;-65
2023/01/20 08:43:20;;;;;;;10.93;5.80;;;;;;;;;;5075632;28;20196;-66
2023/01/20 08:45:47;;;;;;;9.90;5.85;;;;;;;;;;5075578;28;20212;-66
2023/01/20 08:48:18;;;;;;;9.90;5.53;;;;;;;;;;5075844;28;20287;-66
2023/01/20 08:50:46;;;;;;;10.10;5.85;;;;;;;;;;5075495;28;20229;-66
2023/01/20 08:53:13;;;;;;;7.13;5.43;;;;;;;;;;5074687;28;20224;-66
2023/01/20 08:55:40;;;;;;;8.65;5.40;;;;;;;;;;5075333;28;20287;-66
2023/01/20 08:58:08;;;;;;;9.20;5.85;;;;;;;;;;5075330;28;20319;-66
2023/01/20 09:00:35;;;;;;;9.38;5.65;;;;;;;;;;5074982;28;20571;-66
2023/01/20 09:03:03;;;;;;;6.95;5.22;;;;;;;;;;5074839;28;20295;-66
2023/01/20 09:05:32;;;;;;;6.97;5.22;;;;;;;;;;5074927;28;20200;-66
2023/01/20 09:08:00;;;;;;;6.60;4.78;;;;;;;;;;5075624;28;20204;-66
2023/01/20 09:10:27;;;;;;;6.40;5.13;;;;;;;;;;5075475;28;20242;-65
2023/01/20 09:12:55;;;;;;;7.97;4.70;;;;;;;;;;5075536;28;20323;-66
2023/01/20 09:15:22;;;;;;;7.82;5.03;;;;;;;;;;5075756;28;20210;-66
2023/01/20 09:17:49;;;;;;;5.80;4.55;;;;;;;;;;5074940;28;20266;-66
2023/01/20 09:20:17;;;;;;;6.22;4.30;;;;;;;;;;5073916;28;20589;-66
2023/01/20 09:22:46;;;;;;;8.05;6.13;;;;;;;;;;5074979;28;20208;-66
2023/01/20 09:25:13;;;;;;;7.75;6.72;;;;;;;;;;5075433;28;20592;-66
2023/01/20 09:27:41;;;;;;;7.68;6.63;;;;;;;;;;5075114;28;20307;-66
2023/01/20 09:30:09;;;;;;;6.47;5.72;;;;;;;;;;5075156;28;20204;-66
2023/01/20 09:32:36;;;;;;;8.70;6.72;;;;;;;;;;5074796;28;20287;-66
2023/01/20 09:35:04;;;;;;;7.55;6.07;;;;;;;;;;5074769;28;20282;-66
2023/01/20 09:45:56;;;;;;;6.75;4.78;;;;;;;;;;5074548;28;20234;-66
2023/01/20 09:54:03;;;;;;;5.18;4.68;;;;;;;;;;5074728;28;20292;-66
2023/01/20 09:56:36;;;;;;;5.10;4.47;;;;;;;;;;5074919;28;20255;-66
2023/01/20 09:59:06;;;;;;;6.15;4.55;;;;;;;;;;5074211;28;20204;-66
2023/01/20 10:01:36;;;;;;;5.13;4.50;;;;;;;;;;5073900;28;20628;-66
2023/01/20 10:04:07;;;;;;;4.90;4.40;;;;;;;;;;5075115;28;20239;-66
2023/01/20 10:06:38;;;;;;;6.25;4.60;;;;;;;;;;5074875;28;20299;-66
2023/01/20 10:09:10;;;;;;;4.88;4.38;;;;;;;;;;5073341;28;20196;-66
2023/01/20 10:11:41;;;;;;;5.25;4.18;;;;;;;;;;5073814;28;20232;-66
2023/01/20 10:14:10;;;;;;;4.88;4.28;;;;;;;;;;5075259;28;20330;-66
2023/01/20 10:16:41;;;;;;;4.78;4.30;;;;;;;;;;5074287;28;20822;-66
2023/01/20 10:19:11;;;;;;;4.82;4.20;;;;;;;;;;5074647;28;20287;-66
2023/01/20 10:21:41;;;;;;;4.10;3.78;;;;;;;;;;5073941;28;20244;-66
2023/01/20 10:24:11;;;;;;;4.63;3.78;;;;;;;;;;5077745;28;20200;-66
2023/01/20 10:26:42;;;;;;;5.05;4.25;;;;;;;;;;5078315;28;20307;-66
2023/01/20 10:29:12;;;;;;;4.30;3.90;;;;;;;;;;5077818;28;20287;-66
2023/01/20 10:31:43;;;;;;;4.38;3.97;;;;;;;;;;5078451;28;20286;-66
2023/01/20 10:34:14;;;;;;;4.43;4.03;;;;;;;;;;5075600;28;20315;-65
2023/01/20 10:36:44;;;;;;;4.05;3.75;;;;;;;;;;5077482;28;20250;-66
2023/01/20 10:39:14;;;;;;;4.00;3.70;;;;;;;;;;5078036;28;20201;-66
2023/01/20 10:41:46;;;;;;;4.22;3.83;;;;;;;;;;5077519;28;20200;-65
2023/01/20 10:44:14;;;;;;;4.20;3.80;;;;;;;;;;5077447;28;20200;-66
2023/01/20 10:46:56;;;;;;;4.65;4.10;;;;;;;;;;5077755;28;20811;-66
2023/01/20 10:49:35;;;;;;;4.85;4.10;;;;;;;;;;5077755;28;20200;-66
2023/01/20 10:52:13;;;;;;;4.63;4.10;;;;;;;;;;5077227;28;20584;-65
2023/01/20 10:54:47;;;;;;;4.03;3.63;;;;;;;;;;5077192;28;20238;-66
2023/01/20 10:57:16;;;;;;;4.07;3.72;;;;;;;;;;5077538;28;20250;-66
2023/01/20 10:59:45;;;;;;;4.30;3.90;;;;;;;;;;5076954;28;20211;-66
2023/01/20 11:02:17;;;;;;;4.65;3.88;;;;;;;;;;5076630;28;20204;-66
2023/01/20 11:04:46;;;;;;;4.40;4.00;;;;;;;;;;5077195;28;20287;-66
2023/01/20 11:07:16;;;;;;;4.30;3.90;;;;;;;;;;5077024;28;20212;-66
2023/01/20 11:09:43;;;;;;;4.53;4.13;;;;;;;;;;5076659;28;20238;-66
2023/01/20 11:12:13;;;;;;;4.32;3.85;;;;;;;;;;5076204;28;20287;-66
2023/01/20 11:14:43;;;;;;;4.05;3.75;;;;;;;;;;5076601;28;20319;-66
2023/01/20 11:17:15;;;;;;;4.50;4.10;;;;;;;;;;5076421;28;20303;-66
2023/01/20 11:19:47;;;;;;;4.25;3.92;;;;;;;;;;5077527;28;20211;-66
2023/01/20 11:22:19;;;;;;;3.95;3.65;;;;;;;;;;5076145;28;20299;-66
2023/01/20 11:24:47;;;;;;;4.28;3.88;;;;;;;;;;5075299;28;20196;-66
2023/01/20 11:27:18;;;;;;;5.10;4.63;;;;;;;;;;5075985;28;20275;-66
2023/01/20 11:29:49;;;;;;;4.40;4.00;;;;;;;;;;5075453;28;20277;-66
2023/01/20 11:32:27;;;;;;;4.30;3.92;;;;;;;;;;5075312;28;20683;-66
2023/01/20 11:34:55;;;;;;;4.78;4.38;;;;;;;;;;5074344;28;20216;-66
2023/01/20 11:37:25;;;;;;;4.40;4.00;;;;;;;;;;5075685;28;20311;-66
2023/01/20 11:40:02;;;;;;;4.20;3.90;;;;;;;;;;5076001;28;20211;-66
2023/01/20 11:42:30;;;;;;;4.95;4.50;;;;;;;;;;5074890;28;20307;-66
2023/01/20 11:45:01;;;;;;;4.50;4.10;;;;;;;;;;5076152;28;20306;-66
2023/01/20 11:47:29;;;;;;;4.45;4.05;;;;;;;;;;5076289;28;20197;-66
2023/01/20 11:50:20;;;;;;;4.85;4.05;;;;;;;;;;5075935;28;20647;-65
2023/01/20 11:52:47;;;;;;;5.10;4.60;;;;;;;;;;5074535;28;20240;-66
2023/01/20 11:55:15;;;;;;;4.75;4.35;;;;;;;;;;5075785;28;20313;-66
2023/01/20 11:57:47;;;;;;;4.70;4.30;;;;;;;;;;5075114;28;20224;-66
2023/01/20 12:00:31;;;;;;;4.22;3.83;;;;;;;;;;5075555;28;20200;-66
2023/01/20 12:03:04;;;;;;;4.50;4.10;;;;;;;;;;5075286;28;20204;-66
2023/01/20 12:05:35;;;;;;;4.30;3.90;;;;;;;;;;5074576;28;20192;-66
2023/01/20 12:08:04;;;;;;;4.50;4.10;;;;;;;;;;5074890;28;20287;-66
2023/01/20 12:10:35;;;;;;;4.40;4.00;;;;;;;;;;5074545;28;20200;-65
2023/01/20 12:13:04;;;;;;;4.90;4.50;;;;;;;;;;5075787;28;20235;-65
2023/01/20 12:15:33;;;;;;;4.82;4.43;;;;;;;;;;5074915;28;20338;-66
2023/01/20 12:18:06;;;;;;;4.30;4.00;;;;;;;;;;5074466;28;20291;-66
2023/01/20 12:20:36;;;;;;;4.53;4.13;;;;;;;;;;5075475;28;20842;-66
2023/01/20 12:23:13;;;;;;;5.28;4.35;;;;;;;;;;5074975;28;20196;-66
2023/01/20 12:25:44;;;;;;;4.82;4.40;;;;;;;;;;5075119;28;20287;-65
2023/01/20 12:28:14;;;;;;;4.40;4.00;;;;;;;;;;5074929;28;20244;-66
2023/01/20 12:30:46;;;;;;;4.28;3.95;;;;;;;;;;5075071;28;20208;-66
2023/01/20 12:33:19;;;;;;;4.40;4.00;;;;;;;;;;5075115;28;20196;-66
2023/01/20 12:36:03;;;;;;;4.40;4.00;;;;;;;;;;5074654;28;20239;-65
2023/01/20 12:38:33;;;;;;;4.47;4.07;;;;;;;;;;5074144;28;20231;-65
2023/01/20 12:41:06;;;;;;;4.10;3.80;;;;;;;;;;5073868;28;20290;-66
2023/01/20 12:43:36;;;;;;;4.20;3.90;;;;;;;;;;5074701;28;20550;-66
2023/01/20 12:46:12;;;;;;;4.05;3.75;;;;;;;;;;5074013;28;20258;-66
2023/01/20 12:48:44;;;;;;;3.97;3.67;;;;;;;;;;5073288;28;20254;-66
2023/01/20 12:51:25;;;;;;;4.60;4.20;;;;;;;;;;5075219;28;20196;-66
2023/01/20 12:54:06;;;;;;;4.60;4.20;;;;;;;;;;5073966;28;20694;-66
2023/01/20 12:56:39;;;;;;;4.32;3.92;;;;;;;;;;5074170;28;20326;-66
2023/01/20 12:59:13;;;;;;;4.03;3.65;;;;;;;;;;5074249;28;20303;-66
2023/01/20 13:01:43;;;;;;;3.83;3.45;;;;;;;;;;5074258;28;20519;-66
2023/01/20 13:04:37;;;;;;;4.03;3.72;;;;;;;;;;5074092;28;20656;-66
2023/01/20 13:07:11;;;;;;;4.20;3.80;;;;;;;;;;5074042;28;20203;-66
2023/01/20 13:09:46;;;;;;;4.53;4.15;;;;;;;;;;5073905;28;20704;-66
2023/01/20 13:12:22;;;;;;;4.40;4.00;;;;;;;;;;5073348;28;20861;-66
2023/01/20 13:14:53;;;;;;;4.25;3.85;;;;;;;;;;5072825;28;20524;-65
2023/01/20 13:17:24;;;;;;;4.30;3.90;;;;;;;;;;5073320;28;20204;-66
2023/01/20 13:19:53;;;;;;;3.97;3.67;;;;;;;;;;5072397;28;20200;-66
2023/01/20 13:22:23;;;;;;;4.20;3.80;;;;;;;;;;5073565;28;20299;-66
2023/01/20 13:24:52;;;;;;;3.97;3.58;;;;;;;;;;5073928;28;20203;-65
2023/01/20 13:27:25;;;;;;;3.88;3.50;;;;;;;;;;5074453;28;20302;-65
2023/01/20 13:29:56;;;;;;;3.97;3.67;;;;;;;;;;5074675;28;20306;-66
2023/01/20 13:32:28;;;;;;;4.40;4.07;;;;;;;;;;5074173;28;20659;-65
2023/01/20 13:34:55;;;;;;;4.25;3.85;;;;;;;;;;5073647;28;20234;-66
2023/01/20 13:37:35;;;;;;;4.10;3.72;;;;;;;;;;5074248;28;20298;-66
2023/01/20 13:40:02;;;;;;;3.97;3.67;;;;;;;;;;5073235;28;20294;-66
2023/01/20 13:42:45;;;;;;;3.78;3.47;;;;;;;;;;5073028;28;20204;-66
2023/01/20 13:45:21;;;;;;;3.50;3.20;;;;;;;;;;5072678;28;20823;-66
2023/01/20 13:48:07;;;;;;;3.85;3.55;;;;;;;;;;5073799;28;20203;-65
2023/01/20 13:50:35;;;;;;;3.65;3.35;;;;;;;;;;5058128;28;20634;-66
2023/01/20 13:53:17;;;;;;;3.80;3.40;;;;;;;;;;5073855;28;20204;-66
2023/01/20 13:56:00;;;;;;;4.03;3.72;;;;;;;;;;5070706;28;20266;-65
2023/01/20 13:58:30;;;;;;;3.80;3.50;;;;;;;;;;5074608;28;20572;-66
2023/01/20 14:00:59;;;;;;;3.67;3.38;;;;;;;;;;5078419;28;20582;-66
2023/01/20 14:03:27;;;;;;;3.30;3.00;;;;;;;;;;5078262;28;20204;-66
2023/01/20 14:05:56;;;;;;;3.90;3.60;;;;;;;;;;5077773;28;20224;-66
2023/01/20 14:08:24;;;;;;;3.42;3.13;;;;;;;;;;5077759;28;20306;-66
2023/01/20 14:10:52;;;;;;;3.40;3.10;;;;;;;;;;5076802;28;20779;-66
2023/01/20 14:13:21;;;;;;;3.53;3.22;;;;;;;;;;5057817;28;20636;-65
2023/01/20 14:15:54;;;;;;;3.42;3.13;;;;;;;;;;5057817;28;20327;-65
2023/01/20 14:18:22;;;;;;;3.65;3.35;;;;;;;;;;5057920;28;20296;-65
2023/01/20 14:21:00;;;;;;;3.42;3.13;;;;;;;;;;5070237;28;20201;-65
2023/01/20 14:23:30;;;;;;;3.55;3.25;;;;;;;;;;5077933;28;20601;-65
2023/01/20 14:25:58;;;;;;;3.55;3.25;;;;;;;;;;5077646;28;20192;-66
2023/01/20 14:28:25;;;;;;;3.28;2.97;;;;;;;;;;5077473;28;20270;-66
2023/01/20 14:31:11;;;;;;;3.40;3.10;;;;;;;;;;5077009;28;20212;-65
2023/01/20 14:33:44;;;;;;;3.38;3.08;;;;;;;;;;5077056;28;20210;-65
2023/01/20 14:36:14;;;;;;;3.00;2.80;;;;;;;;;;5077664;28;20235;-65
2023/01/20 14:38:42;;;;;;;3.63;3.13;;;;;;;;;;5077798;28;20200;-66
2023/01/20 14:41:23;;;;;;;3.15;2.85;;;;;;;;;;5076961;28;20214;-66
2023/01/20 14:43:50;;;;;;;3.38;3.08;;;;;;;;;;5077194;28;20200;-65
2023/01/20 14:46:19;;;;;;;3.15;2.88;;;;;;;;;;5077336;28;20311;-66
2023/01/20 14:48:47;;;;;;;3.42;3.13;;;;;;;;;;5077576;28;20291;-66
2023/01/20 14:51:15;;;;;;;3.10;2.90;;;;;;;;;;5076922;28;20675;-66
2023/01/20 14:53:42;;;;;;;2.92;2.72;;;;;;;;;;5077782;28;20614;-66
2023/01/20 14:56:16;;;;;;;2.97;2.78;;;;;;;;;;5076497;28;20224;-66
2023/01/20 14:58:45;;;;;;;3.00;2.80;;;;;;;;;;5076465;28;20298;-66
2023/01/20 15:01:18;;;;;;;2.83;2.63;;;;;;;;;;5075928;28;20212;-66
2023/01/20 15:03:55;;;;;;;3.20;2.80;;;;;;;;;;5076113;28;20574;-66
2023/01/20 15:06:22;;;;;;;3.30;3.00;;;;;;;;;;5076297;28;20210;-66
2023/01/20 15:08:51;;;;;;;3.17;2.88;;;;;;;;;;5075325;28;20246;-66
2023/01/20 15:11:23;;;;;;;2.90;2.60;;;;;;;;;;5076130;28;20291;-66
2023/01/20 15:14:08;;;;;;;3.28;2.97;;;;;;;;;;5076984;28;20823;-66